createdAt,value
2018-09-05T00:02:26.288Z,99867.52
2018-09-05T00:04:55.179Z,99861.09
2018-09-05T00:07:23.766Z,99859.77
2018-09-05T00:09:52.565Z,99862.38
2018-09-05T00:12:21.228Z,99859.69
2018-09-05T00:14:49.816Z,99859.81
2018-09-05T00:17:18.429Z,99860.23
2018-09-05T00:19:47.041Z,99857.91
2018-09-05T00:22:15.699Z,99865.21
2018-09-05T00:24:44.512Z,99860.57
2018-09-05T00:27:13.097Z,99867.50
2018-09-05T00:29:41.757Z,99870.20
2018-09-05T00:32:10.740Z,99863.55
2018-09-05T00:34:39.493Z,99864.87
2018-09-05T00:37:08.212Z,99862.52
2018-09-05T00:39:36.848Z,99866.03
2018-09-05T00:42:05.520Z,99867.59
2018-09-05T00:44:34.212Z,99872.89
2018-09-05T00:47:03.046Z,99869.92
2018-09-05T00:49:31.685Z,99869.54
2018-09-05T00:52:00.701Z,99869.31
2018-09-05T00:54:29.377Z,99866.03
2018-09-05T00:56:57.967Z,99869.64
2018-09-05T00:59:26.660Z,99871.08
2018-09-05T01:01:55.385Z,99873.96
2018-09-05T01:04:24.179Z,99879.16
2018-09-05T01:06:53.030Z,99866.78
2018-09-05T01:09:21.628Z,99872.59
2018-09-05T01:11:50.265Z,99874.31
2018-09-05T01:14:18.962Z,99873.27
2018-09-05T01:16:47.620Z,99870.58
2018-09-05T01:19:16.208Z,99874.88
2018-09-05T01:21:44.884Z,99875.06
2018-09-05T01:24:13.593Z,99869.63
2018-09-05T01:26:42.874Z,99869.10
2018-09-05T01:29:11.489Z,99875.84
2018-09-05T01:31:40.093Z,99874.31
2018-09-05T01:34:08.742Z,99874.38
2018-09-05T01:36:37.550Z,99879.58
2018-09-05T01:39:07.867Z,99876.06
2018-09-05T01:41:36.448Z,99875.25
2018-09-05T01:44:05.044Z,99870.30
2018-09-05T01:46:33.633Z,99879.10
2018-09-05T01:49:02.370Z,99871.23
2018-09-05T01:51:33.569Z,99877.97
2018-09-05T01:54:03.188Z,99871.27
2018-09-05T01:56:31.895Z,99877.59
2018-09-05T01:59:00.572Z,99874.05
2018-09-05T02:01:29.184Z,99880.65
2018-09-05T02:03:58.614Z,99876.65
2018-09-05T02:06:27.203Z,99882.03
2018-09-05T02:08:55.920Z,99884.27
2018-09-05T02:11:24.673Z,99888.69
2018-09-05T02:13:53.338Z,99887.39
2018-09-05T02:16:21.937Z,99885.48
2018-09-05T02:18:50.673Z,99885.69
2018-09-05T02:21:19.304Z,99886.42
2018-09-05T02:23:47.998Z,99880.14
2018-09-05T02:26:16.611Z,99885.23
2018-09-05T02:28:45.274Z,99885.44
2018-09-05T02:31:13.980Z,99890.60
2018-09-05T02:33:42.624Z,99885.00
2018-09-05T02:36:11.476Z,99886.95
2018-09-05T02:38:40.156Z,99889.23
2018-09-05T02:41:08.921Z,99890.44
2018-09-05T02:44:43.853Z,99893.03
2018-09-05T02:47:13.348Z,99900.15
2018-09-05T02:49:42.669Z,99902.78
2018-09-05T02:52:11.348Z,99909.90
2018-09-05T02:54:39.926Z,99911.72
2018-09-05T02:57:08.615Z,99912.72
2018-09-05T02:59:37.212Z,99903.70
2018-09-05T03:02:05.960Z,99913.11
2018-09-05T03:04:34.864Z,99909.31
2018-09-05T03:07:03.584Z,99911.38
2018-09-05T03:09:32.208Z,99914.80
2018-09-05T03:12:00.894Z,99914.27
2018-09-05T03:14:29.607Z,99918.01
2018-09-05T03:16:58.302Z,99926.55
2018-09-05T03:19:26.962Z,99922.66
2018-09-05T03:21:55.788Z,99924.19
2018-09-05T03:24:24.424Z,99929.48
2018-09-05T03:26:53.168Z,99929.48
2018-09-05T03:29:22.041Z,99931.89
2018-09-05T03:31:50.777Z,99932.50
2018-09-05T03:34:19.364Z,99940.61
2018-09-05T03:36:47.964Z,99935.81
2018-09-05T03:39:16.708Z,99934.77
2018-09-05T03:41:45.418Z,99943.25
2018-09-05T03:44:14.012Z,99942.72
2018-09-05T03:46:42.645Z,99943.94
2018-09-05T03:49:11.242Z,99944.36
2018-09-05T03:51:39.961Z,99947.52
2018-09-05T03:54:08.577Z,99950.03
2018-09-05T03:56:37.164Z,99941.48
2018-09-05T03:59:06.151Z,99950.42
2018-09-05T04:01:34.761Z,99951.00
2018-09-05T04:04:03.361Z,99954.56
2018-09-05T04:06:32.004Z,99953.98
2018-09-05T04:09:00.762Z,99955.27
2018-09-05T04:11:29.506Z,99958.14
2018-09-05T04:13:58.105Z,99959.02
2018-09-05T04:16:26.748Z,99959.02
2018-09-05T04:18:55.372Z,99969.65
2018-09-05T04:21:24.693Z,99971.44
2018-09-05T04:23:53.283Z,99979.45
2018-09-05T04:26:21.876Z,99980.27
2018-09-05T04:28:50.498Z,99980.72
2018-09-05T04:31:19.214Z,99990.56
2018-09-05T04:33:47.846Z,99990.80
2018-09-05T04:36:16.496Z,99995.88
2018-09-05T04:38:45.141Z,99993.25
2018-09-05T04:41:13.880Z,99996.84
2018-09-05T04:43:42.537Z,99996.45
2018-09-05T04:46:11.691Z,100005.99
2018-09-05T04:48:41.304Z,100008.27
2018-09-05T04:51:09.952Z,100002.58
2018-09-05T04:53:38.600Z,100013.42
2018-09-05T04:56:07.337Z,100014.46
2018-09-05T04:58:35.968Z,100016.15
2018-09-05T05:01:04.616Z,100017.47
2018-09-05T05:03:34.016Z,100023.38
2018-09-05T05:06:02.681Z,100026.73
2018-09-05T05:08:31.526Z,100029.61
2018-09-05T05:11:00.962Z,100026.28
2018-09-05T05:13:30.250Z,100028.95
2018-09-05T05:15:58.954Z,100027.25
2018-09-05T05:18:27.548Z,100030.52
2018-09-05T05:20:56.266Z,100026.77
2018-09-05T05:23:25.029Z,100024.39
2018-09-05T05:25:53.775Z,100027.27
2018-09-05T05:28:22.468Z,100024.78
2018-09-05T05:30:51.052Z,100035.50
2018-09-05T05:33:19.630Z,100033.05
2018-09-05T05:35:48.276Z,100033.91
2018-09-05T05:38:16.917Z,100038.64
2018-09-05T05:40:45.510Z,100031.80
2018-09-05T05:43:14.265Z,100040.72
2018-09-05T05:45:43.546Z,100038.98
2018-09-05T05:48:12.230Z,100037.80
2018-09-05T05:50:40.910Z,100039.05
2018-09-05T05:53:09.581Z,100046.52
2018-09-05T05:55:38.332Z,100035.91
2018-09-05T05:58:06.966Z,100037.93
2018-09-05T06:00:35.733Z,100041.34
2018-09-05T06:03:04.352Z,100040.67
2018-09-05T06:05:32.980Z,100038.08
2018-09-05T06:08:01.636Z,100039.78
2018-09-05T06:10:30.232Z,100038.45
2018-09-05T06:12:59.424Z,100039.17
2018-09-05T06:15:28.792Z,100042.92
2018-09-05T06:17:58.275Z,100040.80
2018-09-05T06:20:27.698Z,100042.77
2018-09-05T06:22:56.945Z,100053.08
2018-09-05T06:25:26.176Z,100040.98
2018-09-05T06:27:55.504Z,100045.47
2018-09-05T06:30:25.017Z,100038.16
2018-09-05T06:32:54.372Z,100044.30
2018-09-05T06:35:23.664Z,100038.48
2018-09-05T06:37:52.874Z,100044.12
2018-09-05T06:40:22.182Z,100043.05
2018-09-05T06:42:51.388Z,100045.31
2018-09-05T06:45:20.594Z,100050.02
2018-09-05T06:47:49.993Z,100049.23
2018-09-05T06:50:19.229Z,100045.32
2018-09-05T06:53:29.330Z,100051.50
2018-09-05T06:55:58.654Z,100051.05
2018-09-05T06:58:27.896Z,100046.89
2018-09-05T07:00:57.100Z,100052.62
2018-09-05T07:03:26.399Z,100046.86
2018-09-05T07:05:55.631Z,100056.45
2018-09-05T07:08:24.880Z,100050.33
2018-09-05T07:10:54.101Z,100051.52
2018-09-05T07:13:23.472Z,100046.33
2018-09-05T07:15:52.680Z,100057.48
2018-09-05T07:18:22.003Z,100052.81
2018-09-05T07:20:51.292Z,100060.36
2018-09-05T07:23:20.464Z,100054.88
2018-09-05T07:25:49.896Z,100058.47
2018-09-05T07:28:19.105Z,100066.73
2018-09-05T07:30:48.692Z,100062.58
2018-09-05T07:33:17.893Z,100069.29
2018-09-05T07:35:47.178Z,100058.94
2018-09-05T07:38:16.448Z,100061.87
2018-09-05T07:40:45.717Z,100061.27
2018-09-05T07:43:14.724Z,100060.13
2018-09-05T07:45:43.940Z,100056.32
2018-09-05T07:48:13.185Z,100053.30
2018-09-05T07:50:42.159Z,100061.67
2018-09-05T07:53:11.268Z,100059.08
2018-09-05T07:55:40.268Z,100060.94
2018-09-05T07:58:09.524Z,100057.87
2018-09-05T08:00:38.736Z,100062.22
2018-09-05T08:03:07.959Z,100062.91
2018-09-05T08:05:36.956Z,100066.34
2018-09-05T08:08:06.911Z,100059.53
2018-09-05T08:10:35.915Z,100059.12
2018-09-05T08:13:04.860Z,100059.91
2018-09-05T08:15:33.914Z,100059.72
2018-09-05T08:18:03.631Z,100056.72
2018-09-05T08:20:32.772Z,100057.55
2018-09-05T08:23:01.720Z,100059.28
2018-09-05T08:25:30.759Z,100055.28
2018-09-05T08:27:59.784Z,100059.48
2018-09-05T08:30:30.144Z,100059.75
2018-09-05T08:32:59.312Z,100051.13
2018-09-05T08:35:28.861Z,100053.09
2018-09-05T08:37:58.095Z,100056.86
2018-09-05T08:40:27.549Z,100063.13
2018-09-05T08:42:56.812Z,100058.92
2018-09-05T08:45:26.454Z,100059.64
2018-09-05T08:47:55.517Z,100050.75
2018-09-05T08:50:24.926Z,100056.42
2018-09-05T08:52:54.256Z,100052.16
2018-09-05T08:55:23.804Z,100057.19
2018-09-05T08:57:53.080Z,100051.73
2018-09-05T09:00:22.388Z,100052.34
2018-09-05T09:02:51.671Z,100049.94
2018-09-05T09:05:20.876Z,100049.12
2018-09-05T09:07:50.368Z,100053.44
2018-09-05T09:10:19.692Z,100044.08
2018-09-05T09:12:48.977Z,100046.22
2018-09-05T09:15:19.171Z,100042.50
2018-09-05T09:17:48.570Z,100046.11
2018-09-05T09:20:17.826Z,100035.55
2018-09-05T09:22:46.976Z,100039.16
2018-09-05T09:25:16.236Z,100033.55
2018-09-05T09:27:45.476Z,100030.65
2018-09-05T09:30:14.781Z,100030.72
2018-09-05T09:32:44.112Z,100027.21
2018-09-05T09:35:13.360Z,100033.30
2018-09-05T09:37:42.660Z,100026.12
2018-09-05T09:40:12.021Z,100027.27
2018-09-05T09:42:41.487Z,100019.52
2018-09-05T09:45:10.685Z,100032.84
2018-09-05T09:47:39.962Z,100029.03
2018-09-05T09:50:09.408Z,100021.42
2018-09-05T09:52:39.450Z,100023.97
2018-09-05T09:55:09.399Z,100018.19
2018-09-05T09:57:38.855Z,100014.66
2018-09-05T10:00:09.556Z,100010.94
2018-09-05T10:02:43.987Z,100008.45
2018-09-05T10:06:19.431Z,100019.02
2018-09-05T10:08:54.059Z,100012.45
2018-09-05T10:11:28.779Z,100008.19
2018-09-05T10:14:03.448Z,99999.41
2018-09-05T10:16:37.766Z,100007.06
2018-09-05T10:19:08.490Z,100002.59
2018-09-05T10:21:38.110Z,100003.91
2018-09-05T10:24:07.495Z,100012.48
2018-09-05T10:26:36.941Z,100012.77
2018-09-05T10:29:06.184Z,100007.53
2018-09-05T10:31:36.341Z,100007.08
2018-09-05T10:34:06.315Z,100010.91
2018-09-05T10:36:35.520Z,100006.49
2018-09-05T10:39:06.878Z,100008.00
2018-09-05T10:41:36.433Z,100007.30
2018-09-05T10:44:05.933Z,100013.17
2018-09-05T10:46:36.489Z,100008.04
2018-09-05T10:49:06.498Z,100008.77
2018-09-05T10:51:41.103Z,99999.68
2018-09-05T10:54:10.399Z,99993.98
2018-09-05T10:56:39.591Z,99991.02
2018-09-05T10:59:08.814Z,99997.20
2018-09-05T11:01:38.110Z,99990.41
2018-09-05T11:04:07.323Z,99999.03
2018-09-05T11:06:36.699Z,99989.91
2018-09-05T11:09:09.224Z,99995.04
2018-09-05T11:11:38.895Z,99992.30
2018-09-05T11:14:09.858Z,99995.89
2018-09-05T11:16:39.530Z,99994.92
2018-09-05T11:19:09.532Z,99990.16
2018-09-05T11:21:39.159Z,99980.64
2018-09-05T11:24:08.808Z,99986.68
2018-09-05T11:26:38.578Z,99993.97
2018-09-05T11:29:08.882Z,99990.02
2018-09-05T11:31:38.252Z,99997.69
2018-09-05T11:34:07.836Z,99988.63
2018-09-05T11:36:37.008Z,99987.76
2018-09-05T11:39:10.810Z,99995.08
2018-09-05T11:41:40.146Z,99995.80
2018-09-05T11:44:09.313Z,99991.25
2018-09-05T11:46:39.257Z,99988.56
2018-09-05T11:49:09.245Z,99998.67
2018-09-05T11:51:38.586Z,99996.50
2018-09-05T11:54:08.547Z,99993.04
2018-09-05T11:56:37.716Z,99982.40
2018-09-05T11:59:07.621Z,99980.27
2018-09-05T12:01:37.441Z,99986.95
2018-09-05T12:04:06.675Z,99989.75
2018-09-05T12:06:35.924Z,99988.70
2018-09-05T12:09:08.494Z,99991.06
2018-09-05T12:11:38.681Z,99991.58
2018-09-05T12:14:08.651Z,99980.67
2018-09-05T12:16:38.324Z,99991.46
2018-09-05T12:19:07.898Z,99981.08
2018-09-05T12:21:37.148Z,99979.95
2018-09-05T12:24:06.381Z,99976.73
2018-09-05T12:26:36.015Z,99972.41
2018-09-05T12:29:07.964Z,99980.16
2018-09-05T12:31:37.129Z,99976.94
2018-09-05T12:34:06.344Z,99981.66
2018-09-05T12:36:35.704Z,99976.57
2018-09-05T12:39:08.315Z,99976.65
2018-09-05T12:41:38.076Z,99972.86
2018-09-05T12:44:07.696Z,99978.10
2018-09-05T12:46:37.223Z,99963.25
2018-09-05T12:49:06.399Z,99970.80
2018-09-05T12:51:35.698Z,99970.72
2018-09-05T12:54:05.927Z,99968.22
2018-09-05T12:56:35.196Z,99962.89
2018-09-05T12:59:04.377Z,99969.59
2018-09-05T13:01:33.817Z,99970.59
2018-09-05T13:04:03.321Z,99963.89
2018-09-05T13:06:32.637Z,99971.51
2018-09-05T13:09:01.956Z,99953.52
2018-09-05T13:11:31.358Z,99956.55
2018-09-05T13:14:00.795Z,99959.28
2018-09-05T13:16:29.954Z,99955.25
2018-09-05T13:19:00.600Z,99951.81
2018-09-05T13:21:30.009Z,99947.51
2018-09-05T13:23:59.424Z,99950.54
2018-09-05T13:26:28.656Z,99947.60
2018-09-05T13:28:58.347Z,99947.19
2018-09-05T13:31:27.686Z,99953.52
2018-09-05T13:33:56.955Z,99958.06
2018-09-05T13:36:26.206Z,99946.69
2018-09-05T13:38:55.456Z,99948.63
2018-09-05T13:41:25.053Z,99949.83
2018-09-05T13:43:55.451Z,99950.67
2018-09-05T13:46:24.711Z,99948.13
2018-09-05T13:48:55.381Z,99947.95
2018-09-05T13:51:24.667Z,99942.86
2018-09-05T13:53:54.215Z,99946.20
2018-09-05T13:56:23.713Z,99944.90
2018-09-05T13:58:53.156Z,99939.84
2018-09-05T14:01:22.489Z,99932.19
2018-09-05T14:03:52.357Z,99937.92
2018-09-05T14:06:21.558Z,99939.22
2018-09-05T14:08:51.804Z,99934.72
2018-09-05T14:11:21.000Z,99935.84
2018-09-05T14:13:50.325Z,99937.92
2018-09-05T14:16:19.724Z,99941.08
2018-09-05T14:18:48.889Z,99936.61
2018-09-05T14:21:18.250Z,99940.23
2018-09-05T14:23:47.767Z,99936.84
2018-09-05T14:26:17.087Z,99937.75
2018-09-05T14:28:46.249Z,99927.67
2018-09-05T14:31:15.685Z,99936.70
2018-09-05T14:33:45.806Z,99931.07
2018-09-05T14:36:15.105Z,99926.53
2018-09-05T14:38:44.671Z,99925.52
2018-09-05T14:41:13.950Z,99918.42
2018-09-05T14:43:43.296Z,99924.67
2018-09-05T14:46:12.450Z,99920.81
2018-09-05T14:48:42.189Z,99922.92
2018-09-05T14:51:11.606Z,99920.56
2018-09-05T14:53:40.835Z,99915.93
2018-09-05T14:56:10.080Z,99921.41
2018-09-05T14:58:39.348Z,99911.27
2018-09-05T15:01:08.639Z,99917.36
2018-09-05T15:03:38.491Z,99913.26
2018-09-05T15:06:07.749Z,99911.39
2018-09-05T15:08:37.575Z,99915.28
2018-09-05T15:11:06.873Z,99917.27
2018-09-05T15:13:36.804Z,99916.78
2018-09-05T15:16:06.412Z,99916.53
2018-09-05T15:18:35.849Z,99907.11
2018-09-05T15:21:05.126Z,99907.07
2018-09-05T15:23:34.689Z,99911.08
2018-09-05T15:26:04.327Z,99919.84
2018-09-05T15:30:55.205Z,99913.00
2018-09-05T15:33:24.552Z,99914.03
2018-09-05T15:35:53.775Z,99915.41
2018-09-05T15:38:23.356Z,99909.06
2018-09-05T15:40:52.777Z,99914.03
2018-09-05T15:43:22.050Z,99916.05
2018-09-05T15:45:51.357Z,99912.34
2018-09-05T15:48:20.615Z,99916.00
2018-09-05T15:50:49.812Z,99921.47
2018-09-05T15:53:19.528Z,99911.09
2018-09-05T15:55:48.751Z,99913.16
2018-09-05T15:58:18.121Z,99912.85
2018-09-05T16:00:47.502Z,99920.38
2018-09-05T16:03:16.663Z,99919.40
2018-09-05T16:05:45.920Z,99915.98
2018-09-05T16:08:15.787Z,99924.75
2018-09-05T16:10:44.981Z,99919.43
2018-09-05T16:13:14.199Z,99921.73
2018-09-05T16:15:43.628Z,99912.66
2018-09-05T16:18:13.570Z,99909.55
2018-09-05T16:20:42.836Z,99913.87
2018-09-05T16:23:11.993Z,99910.37
2018-09-05T16:25:41.245Z,99914.56
2018-09-05T16:28:10.668Z,99920.38
2018-09-05T16:30:40.016Z,99913.94
2018-09-05T16:33:09.577Z,99914.59
2018-09-05T16:35:39.095Z,99918.53
2018-09-05T16:38:09.541Z,99920.50
2018-09-05T16:40:39.444Z,99914.93
2018-09-05T16:43:09.002Z,99917.58
2018-09-05T16:45:41.440Z,99915.20
2018-09-05T16:48:10.185Z,99920.66
2018-09-05T16:50:39.821Z,99918.47
2018-09-05T16:53:09.040Z,99916.39
2018-09-05T16:55:38.285Z,99921.03
2018-09-05T16:58:07.548Z,99928.48
2018-09-05T17:00:36.698Z,99925.03
2018-09-05T17:03:05.949Z,99922.97
2018-09-05T17:05:35.273Z,99920.86
2018-09-05T17:08:04.436Z,99919.02
2018-09-05T17:10:33.616Z,99925.70
2018-09-05T17:13:02.817Z,99926.58
2018-09-05T17:15:32.048Z,99929.88
2018-09-05T17:18:01.284Z,99932.11
2018-09-05T17:20:30.805Z,99935.16
2018-09-05T17:22:59.593Z,99932.22
2018-09-05T17:25:28.845Z,99930.42
2018-09-05T17:28:16.020Z,99931.09
2018-09-05T17:30:44.880Z,99934.45
2018-09-05T17:33:13.563Z,99935.05
2018-09-05T17:35:42.225Z,99935.64
2018-09-05T17:38:10.807Z,99932.63
2018-09-05T17:40:41.877Z,99939.70
2018-09-05T17:43:10.520Z,99941.37
2018-09-05T17:45:39.664Z,99941.69
2018-09-05T17:48:08.589Z,99940.64
2018-09-05T17:50:37.245Z,99945.55
2018-09-05T17:53:05.966Z,99942.84
2018-09-05T17:55:35.196Z,99946.65
2018-09-05T17:58:04.098Z,99946.91
2018-09-05T18:00:32.876Z,99952.10
2018-09-05T18:03:01.810Z,99946.92
2018-09-05T18:05:31.065Z,99957.78
2018-09-05T18:07:59.700Z,99958.58
2018-09-05T18:10:28.517Z,99966.20
2018-09-05T18:12:57.187Z,99964.84
2018-09-05T18:15:25.868Z,99961.02
2018-09-05T18:17:54.500Z,99964.84
2018-09-05T18:20:24.029Z,99968.34
2018-09-05T18:22:52.642Z,99966.44
2018-09-05T18:25:21.224Z,99966.42
2018-09-05T18:27:49.907Z,99966.41
2018-09-05T18:30:18.566Z,99959.59
2018-09-05T18:32:47.244Z,99961.50
2018-09-05T18:35:15.910Z,99960.66
2018-09-05T18:37:46.732Z,99958.70
2018-09-05T18:40:15.352Z,99962.23
2018-09-05T18:42:44.040Z,99965.73
2018-09-05T18:45:12.628Z,99967.08
2018-09-05T18:47:41.345Z,99962.13
2018-09-05T18:50:10.061Z,99958.58
2018-09-05T18:52:38.713Z,99963.45
2018-09-05T18:55:07.365Z,99962.59
2018-09-05T18:57:35.996Z,99960.33
2018-09-05T19:00:05.560Z,99957.30
2018-09-05T19:02:34.235Z,99961.64
2018-09-05T19:05:02.949Z,99961.75
2018-09-05T19:07:31.624Z,99954.11
2018-09-05T19:10:00.306Z,99959.92
2018-09-05T19:12:28.957Z,99957.42
2018-09-05T19:14:57.912Z,99959.11
2018-09-05T19:17:26.586Z,99954.18
2018-09-05T19:19:55.360Z,99956.47
2018-09-05T19:22:24.160Z,99961.99
2018-09-05T19:24:52.763Z,99960.95
2018-09-05T19:27:21.404Z,99961.04
2018-09-05T19:29:51.227Z,99960.06
2018-09-05T19:32:19.844Z,99956.17
2018-09-05T19:34:48.528Z,99958.22
2018-09-05T19:37:17.168Z,99957.62
2018-09-05T19:39:46.004Z,99956.17
2018-09-05T19:42:14.779Z,99953.38
2018-09-05T19:44:44.096Z,99952.99
2018-09-05T19:47:12.820Z,99957.25
2018-09-05T19:49:41.533Z,99950.31
2018-09-05T19:52:10.469Z,99955.87
2018-09-05T19:54:39.068Z,99950.13
2018-09-05T19:57:08.043Z,99953.11
2018-09-05T19:59:36.756Z,99948.72
2018-09-05T20:02:05.382Z,99949.31
2018-09-05T20:04:34.031Z,99949.25
2018-09-05T20:07:02.972Z,99955.67
2018-09-05T20:09:34.122Z,99945.69
2018-09-05T20:12:02.755Z,99947.06
2018-09-05T20:14:31.391Z,99942.17
2018-09-05T20:17:00.246Z,99945.68
2018-09-05T20:19:28.925Z,99947.32
2018-09-05T20:21:58.473Z,99943.12
2018-09-05T20:24:27.944Z,99939.91
2018-09-05T20:26:56.674Z,99943.08
2018-09-05T20:29:25.262Z,99939.44
2018-09-05T20:31:53.872Z,99940.15
2018-09-05T20:34:22.580Z,99936.99
2018-09-05T20:36:51.222Z,99931.71
2018-09-05T20:39:19.861Z,99938.06
2018-09-05T20:41:48.444Z,99935.97
2018-09-05T20:44:17.100Z,99925.33
2018-09-05T20:46:45.724Z,99933.63
2018-09-05T20:49:14.317Z,99926.20
2018-09-05T20:51:42.984Z,99926.41
2018-09-05T20:54:11.944Z,99921.16
2018-09-05T20:56:40.521Z,99920.75
2018-09-05T20:59:09.115Z,99926.88
2018-09-05T21:01:37.713Z,99921.17
2018-09-05T21:04:06.740Z,99920.31
2018-09-05T21:06:35.344Z,99919.21
2018-09-05T21:09:04.868Z,99916.31
2018-09-05T21:11:33.480Z,99910.23
2018-09-05T21:14:02.072Z,99917.48
2018-09-05T21:16:30.721Z,99923.29
2018-09-05T21:18:59.352Z,99922.52
2018-09-05T21:21:27.937Z,99925.74
2018-09-05T21:23:56.532Z,99925.66
2018-09-05T21:26:25.208Z,99923.09
2018-09-05T21:28:54.006Z,99925.73
2018-09-05T21:31:22.861Z,99919.99
2018-09-05T21:33:51.534Z,99918.89
2018-09-05T21:36:20.146Z,99915.58
2018-09-05T21:38:48.913Z,99915.95
2018-09-05T21:41:17.536Z,99910.92
2018-09-05T21:43:46.136Z,99910.23
2018-09-05T21:46:14.780Z,99912.22
2018-09-05T21:48:43.925Z,99906.45
2018-09-05T21:51:12.579Z,99911.95
2018-09-05T21:53:42.444Z,99909.66
2018-09-05T21:56:11.176Z,99906.36
2018-09-05T21:58:39.816Z,99906.52
2018-09-05T22:01:08.419Z,99901.04
2018-09-05T22:03:37.028Z,99900.99
2018-09-05T22:06:05.691Z,99900.63
2018-09-05T22:08:34.290Z,99902.73
2018-09-05T22:11:08.345Z,99900.73
2018-09-05T22:13:36.947Z,99899.04
2018-09-05T22:16:05.568Z,99903.31
2018-09-05T22:18:34.144Z,99901.10
2018-09-05T22:21:03.129Z,99901.31
2018-09-05T22:23:31.828Z,99902.50
2018-09-05T22:26:00.409Z,99910.56
2018-09-05T22:28:29.036Z,99907.11
2018-09-05T22:30:57.611Z,99900.39
2018-09-05T22:33:26.221Z,99895.88
2018-09-05T22:35:55.073Z,99893.72
2018-09-05T22:38:23.648Z,99895.44
2018-09-05T22:40:53.271Z,99888.34
2018-09-05T22:43:34.228Z,99889.92
2018-09-05T22:46:13.882Z,99889.30
2018-09-05T22:50:02.661Z,99885.94
2018-09-05T22:52:58.894Z,99886.47
2018-09-05T22:57:47.241Z,99892.71
2018-09-05T23:00:25.922Z,99885.75
2018-09-05T23:04:07.388Z,99882.92
2018-09-05T23:06:45.296Z,99884.16
2018-09-05T23:09:13.945Z,99881.63
2018-09-05T23:11:59.637Z,99884.25
2018-09-05T23:14:40.460Z,99883.44
2018-09-05T23:17:25.181Z,99878.94
2018-09-05T23:21:14.378Z,99873.19
2018-09-05T23:24:00.397Z,99871.45
2018-09-05T23:26:29.681Z,99874.28
2018-09-05T23:28:58.496Z,99876.63
2018-09-05T23:31:27.241Z,99871.16
2018-09-05T23:33:56.087Z,99869.05
2018-09-05T23:36:25.113Z,99868.47
2018-09-05T23:38:53.834Z,99863.83
2018-09-05T23:41:22.576Z,99858.59
2018-09-05T23:43:51.233Z,99866.98
2018-09-05T23:46:20.859Z,99865.80
2018-09-05T23:48:50.074Z,99861.27
2018-09-05T23:51:18.893Z,99859.41
2018-09-05T23:53:47.595Z,99867.75
2018-09-05T23:56:16.274Z,99863.83
2018-09-05T23:58:44.921Z,99868.38
